Time;durP1;ratioP1;P1;durP2;ratioP2;P2;SDS_P1;SDS_P2;PMS_P1;PMS_P2;Temp;Humidity;BMP_temperature;BMP_pressure;BME280_temperature;BME280_humidity;BME280_pressure;Samples;Min_cycle;Max_cycle;Signal;HPM_P1;HPM_P2
2022/12/08 00:00:43;;;;;;;10.45;8.32;;;3.80;99.90;;;;;;5082065;28;20215;-61
2022/12/08 00:03:10;;;;;;;10.80;8.18;;;3.80;99.90;;;;;;5081009;28;20207;-61
2022/12/08 00:11:12;;;;;;;10.85;8.52;;;3.70;99.90;;;;;;5078821;28;20636;-61
2022/12/08 00:13:39;;;;;;;13.13;7.03;;;3.80;99.90;;;;;;5079302;28;20208;-61
2022/12/08 00:16:06;;;;;;;9.68;6.53;;;3.70;99.90;;;;;;5079515;28;20220;-61
2022/12/08 00:18:32;;;;;;;9.52;7.60;;;3.70;99.90;;;;;;5079843;28;20228;-61
2022/12/08 00:21:01;;;;;;;8.45;6.95;;;3.70;99.90;;;;;;5081681;28;20212;-61
2022/12/08 00:23:27;;;;;;;10.27;7.70;;;3.70;99.90;;;;;;5085693;28;20207;-61
2022/12/08 00:25:54;;;;;;;6.78;6.07;;;3.70;99.90;;;;;;5086391;28;20196;-61
2022/12/08 00:28:21;;;;;;;8.10;7.18;;;3.70;99.90;;;;;;5091452;28;20696;-61
2022/12/08 00:30:48;;;;;;;10.40;6.82;;;3.70;99.90;;;;;;5092623;28;20200;-61
2022/12/08 00:33:14;;;;;;;9.40;6.88;;;3.70;99.90;;;;;;5093723;28;20224;-61
2022/12/08 00:35:41;;;;;;;8.05;7.00;;;3.70;99.90;;;;;;5093421;28;20231;-61
2022/12/08 00:38:09;;;;;;;9.20;6.32;;;3.70;99.90;;;;;;5088108;28;20232;-61
2022/12/08 00:40:36;;;;;;;8.80;5.90;;;3.70;99.90;;;;;;5088794;28;20211;-61
2022/12/08 00:43:03;;;;;;;7.25;6.30;;;3.70;99.90;;;;;;5087290;28;20211;-59
2022/12/08 00:45:29;;;;;;;8.95;6.10;;;3.80;99.90;;;;;;5086622;28;20197;-61
2022/12/08 00:47:56;;;;;;;9.65;6.18;;;3.80;99.90;;;;;;5086259;28;20207;-61
2022/12/08 00:50:23;;;;;;;7.05;5.70;;;3.80;99.90;;;;;;5085797;28;20674;-61
2022/12/08 00:52:49;;;;;;;9.05;6.22;;;3.80;99.90;;;;;;5085646;28;20204;-61
2022/12/08 00:55:18;;;;;;;7.57;6.03;;;3.80;99.90;;;;;;5086905;28;20224;-61
2022/12/08 00:57:44;;;;;;;7.88;6.43;;;3.80;99.90;;;;;;5085533;28;20205;-61
2022/12/08 01:00:12;;;;;;;6.78;6.07;;;3.80;99.90;;;;;;5085537;28;20220;-60
2022/12/08 01:02:39;;;;;;;7.70;4.93;;;3.80;99.90;;;;;;5087974;28;20213;-61
2022/12/08 01:05:06;;;;;;;8.30;6.30;;;3.80;99.90;;;;;;5088752;28;20204;-60
2022/12/08 01:07:33;;;;;;;8.05;5.90;;;3.70;99.90;;;;;;5088236;28;20201;-61
2022/12/08 01:10:00;;;;;;;12.73;6.90;;;3.80;99.90;;;;;;5085923;28;20225;-61
2022/12/08 01:12:29;;;;;;;9.57;6.32;;;3.70;99.90;;;;;;5084999;28;20299;-61
2022/12/08 01:14:55;;;;;;;9.32;5.45;;;3.70;99.90;;;;;;5081539;28;20213;-60
2022/12/08 01:17:22;;;;;;;9.55;7.15;;;3.70;99.90;;;;;;5080512;28;20204;-60
2022/12/08 01:19:49;;;;;;;8.52;6.50;;;3.70;99.90;;;;;;5081595;28;20225;-62
2022/12/08 01:22:16;;;;;;;7.78;6.35;;;3.70;99.90;;;;;;5080614;28;20204;-60
2022/12/08 01:24:42;;;;;;;7.28;6.40;;;3.60;99.90;;;;;;5078792;28;20669;-61
2022/12/08 01:27:09;;;;;;;10.68;6.53;;;3.60;99.90;;;;;;5079933;28;20212;-61
2022/12/08 01:29:37;;;;;;;9.80;6.63;;;3.60;99.90;;;;;;5078678;28;20221;-62
2022/12/08 01:32:04;;;;;;;11.20;6.28;;;3.50;99.90;;;;;;5078442;28;20300;-60
2022/12/08 01:34:31;;;;;;;12.02;6.72;;;3.50;99.90;;;;;;5078992;28;20213;-61
2022/12/08 01:36:58;;;;;;;7.22;6.53;;;3.40;99.90;;;;;;5078736;28;20200;-61
2022/12/08 01:39:25;;;;;;;9.55;6.93;;;3.30;99.90;;;;;;5078733;28;20240;-60
2022/12/08 01:41:52;;;;;;;10.35;7.57;;;3.30;99.90;;;;;;5076641;28;20207;-60
2022/12/08 01:44:53;;;;;;;10.30;8.00;;;3.20;99.90;;;;;;5076358;28;20675;-61
2022/12/08 01:47:20;;;;;;;10.95;8.90;;;3.20;99.90;;;;;;5077038;28;20191;-61
2022/12/08 01:49:47;;;;;;;10.43;8.50;;;3.10;99.90;;;;;;5076809;28;20228;-60
2022/12/08 01:52:18;;;;;;;15.73;9.55;;;3.10;99.90;;;;;;5075779;28;20659;-60
2022/12/08 01:54:48;;;;;;;13.02;9.77;;;3.00;99.90;;;;;;5076465;28;20208;-61
2022/12/08 01:57:20;;;;;;;14.48;8.93;;;3.00;99.90;;;;;;5075997;28;20185;-60
2022/12/08 01:59:53;;;;;;;13.75;9.40;;;3.00;99.90;;;;;;5076412;28;20231;-60
2022/12/08 02:02:20;;;;;;;11.50;7.45;;;3.00;99.90;;;;;;5076766;28;20199;-61
2022/12/08 02:04:47;;;;;;;11.70;9.00;;;3.00;99.90;;;;;;5076741;28;20207;-61
2022/12/08 02:07:16;;;;;;;14.52;10.20;;;2.90;99.90;;;;;;5076109;28;20699;-61
2022/12/08 02:09:44;;;;;;;12.43;9.73;;;2.90;99.90;;;;;;5075867;28;20224;-61
2022/12/08 02:12:11;;;;;;;13.98;9.10;;;2.90;99.90;;;;;;5076321;28;20665;-62
2022/12/08 02:14:38;;;;;;;12.75;9.52;;;2.90;99.90;;;;;;5079373;28;20197;-61
2022/12/08 02:17:17;;;;;;;10.30;8.73;;;2.90;99.90;;;;;;5083050;28;20208;-61
2022/12/08 02:20:17;;;;;;;13.68;9.25;;;2.90;99.90;;;;;;5078841;28;20232;-61
2022/12/08 02:22:50;;;;;;;13.38;9.57;;;2.90;99.90;;;;;;5077616;28;20201;-61
2022/12/08 02:25:26;;;;;;;14.00;10.05;;;2.90;99.90;;;;;;5079695;28;20542;-62
2022/12/08 02:28:10;;;;;;;12.50;9.88;;;2.90;99.90;;;;;;5078097;28;20189;-61
2022/12/08 02:30:44;;;;;;;12.73;8.57;;;2.90;99.90;;;;;;5079055;28;20193;-62
2022/12/08 02:33:41;;;;;;;12.63;10.07;;;2.90;99.90;;;;;;5080079;28;20191;-61
2022/12/08 02:36:15;;;;;;;12.35;9.20;;;2.90;99.90;;;;;;5081002;28;20675;-60
2022/12/08 02:38:50;;;;;;;10.77;9.60;;;2.90;99.90;;;;;;5085370;28;20722;-60
2022/12/08 02:41:29;;;;;;;14.15;9.60;;;2.90;99.90;;;;;;5084378;28;20200;-60
2022/12/08 02:44:06;;;;;;;10.15;9.10;;;2.90;99.90;;;;;;5085419;28;20193;-61
2022/12/08 02:46:36;;;;;;;16.00;9.82;;;2.90;99.90;;;;;;5082064;28;20190;-61
2022/12/08 02:49:04;;;;;;;17.10;9.95;;;2.90;99.90;;;;;;5074935;28;20228;-62
2022/12/08 02:51:32;;;;;;;11.80;9.30;;;3.00;99.90;;;;;;5076035;28;20211;-62
2022/12/08 02:53:59;;;;;;;11.90;10.07;;;3.00;99.90;;;;;;5076292;28;20201;-61
2022/12/08 02:56:51;;;;;;;12.18;10.18;;;3.00;99.90;;;;;;5075573;28;20696;-61
2022/12/08 02:59:30;;;;;;;11.48;10.05;;;3.00;99.90;;;;;;5074345;28;20818;-61
2022/12/08 03:02:13;;;;;;;10.50;8.55;;;3.00;99.90;;;;;;5083209;28;20267;-61
2022/12/08 03:04:46;;;;;;;14.23;9.13;;;3.10;99.90;;;;;;5076189;28;20196;-61
2022/12/08 03:07:23;;;;;;;11.02;8.95;;;3.10;99.90;;;;;;5075016;28;20207;-61
2022/12/08 03:09:54;;;;;;;12.82;8.77;;;3.10;99.90;;;;;;5074528;28;20266;-61
2022/12/08 03:12:26;;;;;;;10.48;9.23;;;3.20;99.90;;;;;;5074980;28;20200;-61
2022/12/08 03:14:55;;;;;;;13.27;9.73;;;3.20;99.90;;;;;;5075132;28;20193;-61
2022/12/08 03:17:27;;;;;;;11.32;8.50;;;3.20;99.90;;;;;;5074689;28;20201;-61
2022/12/08 03:19:54;;;;;;;9.52;8.18;;;3.20;99.90;;;;;;5074711;28;20231;-61
2022/12/08 03:22:27;;;;;;;13.48;8.48;;;3.30;99.90;;;;;;5075211;28;20208;-62
2022/12/08 03:24:55;;;;;;;11.20;8.43;;;3.30;99.90;;;;;;5075095;28;20182;-60
2022/12/08 03:27:26;;;;;;;11.70;8.15;;;3.30;99.90;;;;;;5074732;28;20222;-61
2022/12/08 03:29:55;;;;;;;9.90;7.90;;;3.30;99.90;;;;;;5075083;28;20230;-61
2022/12/08 03:32:27;;;;;;;13.23;8.32;;;3.30;99.90;;;;;;5074548;28;20673;-62
2022/12/08 03:34:56;;;;;;;9.80;8.10;;;3.30;99.90;;;;;;5075254;28;20181;-61
2022/12/08 03:37:26;;;;;;;10.48;7.97;;;3.40;99.90;;;;;;5074755;28;20569;-61
2022/12/08 03:39:53;;;;;;;8.90;8.00;;;3.40;99.90;;;;;;5074006;28;20719;-62
2022/12/08 03:42:19;;;;;;;8.73;7.70;;;3.40;99.90;;;;;;5074398;28;20215;-61
2022/12/08 03:44:46;;;;;;;9.18;8.25;;;3.40;99.90;;;;;;5074156;28;20200;-61
2022/12/08 03:47:13;;;;;;;17.02;8.30;;;3.40;99.90;;;;;;5073985;28;20201;-61
2022/12/08 03:49:40;;;;;;;8.98;8.05;;;3.30;99.90;;;;;;5073822;28;20227;-61
2022/12/08 03:52:06;;;;;;;12.30;8.77;;;3.30;99.90;;;;;;5073562;28;20204;-61
2022/12/08 03:54:34;;;;;;;15.05;8.50;;;3.30;99.90;;;;;;5074477;28;20209;-61
2022/12/08 03:57:01;;;;;;;13.57;8.30;;;3.30;99.90;;;;;;5073771;28;20224;-61
2022/12/08 03:59:28;;;;;;;12.23;8.32;;;3.30;99.90;;;;;;5073425;28;20241;-62
2022/12/08 04:01:55;;;;;;;11.93;8.50;;;3.30;99.90;;;;;;5072841;28;20548;-60
2022/12/08 04:04:21;;;;;;;10.90;8.73;;;3.30;99.90;;;;;;5073672;28;20201;-62
2022/12/08 04:06:49;;;;;;;11.02;9.77;;;3.30;99.90;;;;;;5073772;28;20205;-61
2022/12/08 04:10:44;;;;;;;14.73;9.30;;;3.30;99.90;;;;;;5111370;27;20558;-61
2022/12/08 04:13:11;;;;;;;18.00;9.07;;;3.30;99.90;;;;;;5111329;28;20273;-60
2022/12/08 04:15:37;;;;;;;15.75;9.38;;;3.30;99.90;;;;;;5111623;28;20576;-61
2022/12/08 04:18:04;;;;;;;13.25;10.40;;;3.40;99.90;;;;;;5111318;28;20226;-60
2022/12/08 04:20:31;;;;;;;10.57;8.63;;;3.40;99.90;;;;;;5111613;28;20207;-61
2022/12/08 04:22:58;;;;;;;12.23;10.00;;;3.40;99.90;;;;;;5113039;28;20205;-61
2022/12/08 04:25:24;;;;;;;13.60;10.48;;;3.40;99.90;;;;;;5111471;28;20226;-61
2022/12/08 04:27:52;;;;;;;14.88;9.65;;;3.40;99.90;;;;;;5111105;28;20207;-60
2022/12/08 04:30:19;;;;;;;16.27;9.88;;;3.40;99.90;;;;;;5111186;28;20222;-62
2022/12/08 04:32:46;;;;;;;18.13;9.65;;;3.40;99.90;;;;;;5111785;28;20200;-61
2022/12/08 04:35:13;;;;;;;14.05;9.60;;;3.40;99.90;;;;;;5111137;28;20208;-59
2022/12/08 04:37:39;;;;;;;14.45;9.93;;;3.40;99.90;;;;;;5111248;28;20211;-61
2022/12/08 04:40:07;;;;;;;11.32;9.05;;;3.30;99.90;;;;;;5110875;28;20242;-61
2022/12/08 04:42:34;;;;;;;14.80;11.10;;;3.30;99.90;;;;;;5111247;28;20231;-61
2022/12/08 04:45:02;;;;;;;11.43;9.65;;;3.30;99.90;;;;;;5110995;28;20543;-60
2022/12/08 04:47:29;;;;;;;13.10;9.50;;;3.40;99.90;;;;;;5110903;28;20203;-61
2022/12/08 04:49:56;;;;;;;12.38;9.50;;;3.40;99.90;;;;;;5110758;28;20223;-62
2022/12/08 04:52:22;;;;;;;11.05;8.88;;;3.40;99.90;;;;;;5110900;28;20200;-61
2022/12/08 04:54:49;;;;;;;10.60;8.65;;;3.40;99.90;;;;;;5110665;28;20207;-61
2022/12/08 04:57:16;;;;;;;16.30;9.82;;;3.40;99.90;;;;;;5110870;28;20203;-62
2022/12/08 04:59:42;;;;;;;16.88;8.77;;;3.40;99.90;;;;;;5110603;28;20212;-61
2022/12/08 05:02:12;;;;;;;13.77;8.02;;;3.40;99.90;;;;;;5110631;28;20210;-62
2022/12/08 05:04:39;;;;;;;10.25;8.15;;;3.40;99.90;;;;;;5108758;28;20192;-61
2022/12/08 05:07:06;;;;;;;11.15;8.00;;;3.40;99.90;;;;;;5098743;28;20566;-60
2022/12/08 05:09:32;;;;;;;10.88;8.73;;;3.40;99.90;;;;;;5110082;28;20644;-61
2022/12/08 05:11:59;;;;;;;10.60;8.25;;;3.40;99.90;;;;;;5095989;28;20203;-62
2022/12/08 05:14:26;;;;;;;12.18;8.48;;;3.40;99.90;;;;;;5089826;28;20201;-61
2022/12/08 05:16:53;;;;;;;12.85;7.93;;;3.40;99.90;;;;;;5095422;28;20204;-61
2022/12/08 05:19:21;;;;;;;9.15;7.75;;;3.40;99.90;;;;;;5098803;28;20208;-61
2022/12/08 05:21:48;;;;;;;10.23;8.55;;;3.40;99.90;;;;;;5099572;28;20205;-62
2022/12/08 05:24:14;;;;;;;12.13;8.25;;;3.40;99.90;;;;;;5079744;28;20204;-61
2022/12/08 05:26:41;;;;;;;9.13;7.82;;;3.40;99.90;;;;;;5075939;28;20208;-61
2022/12/08 05:29:08;;;;;;;8.18;6.70;;;3.50;99.90;;;;;;5075621;28;20583;-60
2022/12/08 05:31:34;;;;;;;11.82;7.45;;;3.50;99.90;;;;;;5075863;28;20707;-61
2022/12/08 05:34:01;;;;;;;7.90;6.93;;;3.50;99.90;;;;;;5075908;28;20205;-61
2022/12/08 05:36:29;;;;;;;8.02;7.20;;;3.50;99.90;;;;;;5082252;28;20204;-60
2022/12/08 05:38:57;;;;;;;10.35;8.27;;;3.50;99.90;;;;;;5096218;28;20220;-61
2022/12/08 05:41:24;;;;;;;10.23;7.00;;;3.50;99.90;;;;;;5086360;28;20193;-61
2022/12/08 05:43:51;;;;;;;10.60;7.53;;;3.50;99.90;;;;;;5076781;28;20205;-60
2022/12/08 05:46:18;;;;;;;9.93;8.13;;;3.50;99.90;;;;;;5077149;28;20201;-60
2022/12/08 05:48:45;;;;;;;7.97;7.00;;;3.50;99.90;;;;;;5076183;28;20231;-60
2022/12/08 05:51:18;;;;;;;9.95;6.93;;;3.50;99.90;;;;;;5088356;28;20208;-60
2022/12/08 05:53:46;;;;;;;11.20;7.90;;;3.40;99.90;;;;;;5077392;28;20193;-60
2022/12/08 05:56:13;;;;;;;9.77;7.95;;;3.40;99.90;;;;;;5077950;28;20211;-60
2022/12/08 05:58:40;;;;;;;11.93;8.55;;;3.40;99.90;;;;;;5077555;28;20303;-60
2022/12/08 06:01:07;;;;;;;9.68;8.55;;;3.40;99.90;;;;;;5080035;28;20683;-60
2022/12/08 06:03:34;;;;;;;10.85;9.00;;;3.50;99.90;;;;;;5083420;28;20205;-61
2022/12/08 06:06:01;;;;;;;10.70;8.30;;;3.50;99.90;;;;;;5083953;28;20657;-60
2022/12/08 06:08:27;;;;;;;11.70;8.45;;;3.50;99.90;;;;;;5091947;28;20225;-61
2022/12/08 06:10:55;;;;;;;14.13;8.43;;;3.50;99.90;;;;;;5080436;28;20212;-61
2022/12/08 06:13:22;;;;;;;10.75;8.82;;;3.50;99.90;;;;;;5075466;28;20208;-60
2022/12/08 06:15:49;;;;;;;10.90;9.07;;;3.50;99.90;;;;;;5076744;28;20231;-58
2022/12/08 06:18:16;;;;;;;10.90;9.50;;;3.50;99.90;;;;;;5076004;28;20251;-59
2022/12/08 06:20:42;;;;;;;13.63;9.65;;;3.50;99.90;;;;;;5075091;28;20193;-61
2022/12/08 06:23:09;;;;;;;12.93;10.40;;;3.50;99.90;;;;;;5074920;28;20201;-60
2022/12/08 06:25:36;;;;;;;14.90;9.70;;;3.50;99.90;;;;;;5075576;28;20312;-59
2022/12/08 06:28:07;;;;;;;11.82;9.23;;;3.50;99.90;;;;;;5075335;28;20247;-60
2022/12/08 06:30:34;;;;;;;11.27;10.15;;;3.50;99.90;;;;;;5075512;28;20205;-60
2022/12/08 06:33:01;;;;;;;13.13;9.20;;;3.40;99.90;;;;;;5074812;28;20197;-60
2022/12/08 06:35:27;;;;;;;13.60;10.63;;;3.40;99.90;;;;;;5076299;28;20205;-60
2022/12/08 06:37:54;;;;;;;11.52;9.48;;;3.40;99.90;;;;;;5074792;28;20208;-62
2022/12/08 06:40:21;;;;;;;13.50;9.75;;;3.40;99.90;;;;;;5074738;28;20209;-61
2022/12/08 06:42:47;;;;;;;12.40;9.15;;;3.40;99.90;;;;;;5075379;28;20232;-61
2022/12/08 06:45:17;;;;;;;12.45;9.27;;;3.40;99.90;;;;;;5086794;28;20201;-61
2022/12/08 06:47:44;;;;;;;10.80;9.00;;;3.40;99.90;;;;;;5085194;28;20637;-61
2022/12/08 06:50:12;;;;;;;9.45;8.45;;;3.40;99.90;;;;;;5094793;28;20223;-61
2022/12/08 06:52:39;;;;;;;12.10;8.82;;;3.40;99.90;;;;;;5095134;28;20204;-61
2022/12/08 06:55:07;;;;;;;8.70;7.15;;;3.30;99.90;;;;;;5095637;28;20262;-62
2022/12/08 06:57:34;;;;;;;9.27;8.18;;;3.30;99.90;;;;;;5095326;28;20204;-61
2022/12/08 07:00:01;;;;;;;10.63;8.40;;;3.30;99.90;;;;;;5095070;28;20243;-60
2022/12/08 07:02:29;;;;;;;19.42;9.10;;;3.30;99.90;;;;;;5095405;28;20201;-61
2022/12/08 07:04:55;;;;;;;9.65;8.65;;;3.20;99.90;;;;;;5094690;28;20682;-61
2022/12/08 07:07:22;;;;;;;10.88;9.23;;;3.20;99.90;;;;;;5095112;28;20201;-62
2022/12/08 07:09:49;;;;;;;11.02;9.38;;;3.20;99.90;;;;;;5094589;28;20236;-61
2022/12/08 07:12:15;;;;;;;11.85;9.38;;;3.20;99.90;;;;;;5096585;28;20219;-61
2022/12/08 07:14:42;;;;;;;11.05;8.50;;;3.20;99.90;;;;;;5094930;28;20196;-62
2022/12/08 07:17:09;;;;;;;14.40;9.00;;;3.20;99.90;;;;;;5094525;28;20196;-60
2022/12/08 07:19:37;;;;;;;13.77;9.80;;;3.10;99.90;;;;;;5094747;28;20216;-61
2022/12/08 07:22:04;;;;;;;10.88;9.70;;;3.00;99.90;;;;;;5094169;28;20208;-61
2022/12/08 07:24:30;;;;;;;13.23;8.55;;;3.00;99.90;;;;;;5093981;28;20676;-61
2022/12/08 07:26:57;;;;;;;11.68;9.35;;;3.00;99.90;;;;;;5094154;28;20204;-61
2022/12/08 07:29:24;;;;;;;13.02;9.00;;;3.00;99.90;;;;;;5094386;28;20220;-61
2022/12/08 07:31:51;;;;;;;11.52;8.70;;;3.00;99.90;;;;;;5094293;28;20204;-60
2022/12/08 07:34:17;;;;;;;12.27;9.48;;;3.00;99.90;;;;;;5094318;28;20200;-61
2022/12/08 07:36:45;;;;;;;11.25;9.60;;;2.90;99.90;;;;;;5093862;28;20207;-61
2022/12/08 07:39:12;;;;;;;12.50;9.90;;;2.90;99.90;;;;;;5094481;28;20224;-61
2022/12/08 07:41:39;;;;;;;12.82;9.60;;;2.90;99.90;;;;;;5094724;28;20197;-61
2022/12/08 07:44:06;;;;;;;13.15;10.18;;;2.90;99.90;;;;;;5093775;28;20204;-61
2022/12/08 07:46:32;;;;;;;14.10;10.98;;;2.90;99.90;;;;;;5093996;28;20664;-60
2022/12/08 07:48:59;;;;;;;14.15;11.75;;;2.90;99.90;;;;;;5093834;28;20223;-61
2022/12/08 07:51:26;;;;;;;15.57;10.38;;;2.90;99.90;;;;;;5094430;28;20235;-61
2022/12/08 07:53:54;;;;;;;17.15;11.95;;;2.90;99.90;;;;;;5094238;28;20208;-60
2022/12/08 07:56:21;;;;;;;11.57;9.98;;;3.00;99.90;;;;;;5094529;28;20207;-60
2022/12/08 07:58:48;;;;;;;18.27;12.55;;;3.00;99.90;;;;;;5094311;28;20216;-61
2022/12/08 08:01:23;;;;;;;16.45;13.25;;;3.00;99.90;;;;;;5095276;28;20207;-61
2022/12/08 08:03:49;;;;;;;14.98;12.32;;;3.10;99.90;;;;;;5094995;28;20210;-60
2022/12/08 08:06:16;;;;;;;16.95;12.63;;;3.10;99.90;;;;;;5093869;28;20215;-61
2022/12/08 08:08:43;;;;;;;19.70;12.60;;;3.10;99.90;;;;;;5094809;28;20242;-61
2022/12/08 08:11:11;;;;;;;15.45;12.55;;;3.20;99.90;;;;;;5093561;28;20227;-60
2022/12/08 08:13:38;;;;;;;16.58;11.60;;;3.20;99.90;;;;;;5093594;28;20693;-61
2022/12/08 08:16:05;;;;;;;17.83;12.95;;;3.20;99.90;;;;;;5093680;28;20208;-61
2022/12/08 08:18:33;;;;;;;17.13;13.43;;;3.20;99.90;;;;;;5093598;28;20223;-59
2022/12/08 08:21:00;;;;;;;17.35;12.77;;;3.20;99.90;;;;;;5094225;28;20200;-62
2022/12/08 08:23:27;;;;;;;15.93;12.02;;;3.20;99.90;;;;;;5094197;28;20215;-60
2022/12/08 08:25:54;;;;;;;18.77;13.77;;;3.20;99.90;;;;;;5094307;28;20207;-61
2022/12/08 08:28:22;;;;;;;18.98;12.70;;;3.20;99.90;;;;;;5094121;28;20224;-61
2022/12/08 08:30:49;;;;;;;18.85;13.95;;;3.20;99.90;;;;;;5093854;28;20219;-61
2022/12/08 08:33:15;;;;;;;18.90;13.82;;;3.20;99.90;;;;;;5094114;28;20212;-61
2022/12/08 08:35:42;;;;;;;17.25;12.73;;;3.20;99.90;;;;;;5094056;28;20196;-62
2022/12/08 08:38:09;;;;;;;19.20;13.23;;;3.30;99.90;;;;;;5093615;28;20741;-62
2022/12/08 08:40:36;;;;;;;21.35;15.10;;;3.30;99.90;;;;;;5094284;28;20200;-60
2022/12/08 08:43:03;;;;;;;19.58;14.00;;;3.30;99.90;;;;;;5094049;28;20201;-61
2022/12/08 08:45:31;;;;;;;20.08;14.65;;;3.30;99.90;;;;;;5093873;28;20200;-61
2022/12/08 08:47:58;;;;;;;20.35;14.55;;;3.30;99.90;;;;;;5094276;28;20219;-60
2022/12/08 08:50:25;;;;;;;18.95;13.80;;;3.30;99.90;;;;;;5093980;28;20227;-62
2022/12/08 08:52:52;;;;;;;17.50;13.32;;;3.30;99.90;;;;;;5093520;28;20203;-61
2022/12/08 08:55:19;;;;;;;17.25;11.98;;;3.40;99.90;;;;;;5094047;28;20228;-61
2022/12/08 08:57:46;;;;;;;16.58;12.95;;;3.30;99.90;;;;;;5098951;28;20204;-61
2022/12/08 09:00:14;;;;;;;18.25;13.50;;;3.30;99.90;;;;;;5103873;28;20206;-60
2022/12/08 09:02:42;;;;;;;14.77;11.80;;;3.30;99.90;;;;;;5104894;28;20265;-61
2022/12/08 09:05:09;;;;;;;16.17;10.75;;;3.40;99.90;;;;;;5104837;28;20200;-61
2022/12/08 09:07:35;;;;;;;20.75;13.00;;;3.40;99.90;;;;;;5106114;28;20219;-61
2022/12/08 09:10:02;;;;;;;14.98;12.25;;;3.30;99.90;;;;;;5102644;28;20584;-62
2022/12/08 09:12:29;;;;;;;15.85;12.27;;;3.40;99.90;;;;;;5102409;28;20225;-61
2022/12/08 09:14:56;;;;;;;17.27;12.90;;;3.30;99.90;;;;;;5102587;28;20204;-60
2022/12/08 09:17:22;;;;;;;17.85;12.40;;;3.40;99.90;;;;;;5102527;28;20617;-61
2022/12/08 09:19:51;;;;;;;19.08;12.60;;;3.30;99.90;;;;;;5102038;28;20220;-61
2022/12/08 09:22:17;;;;;;;14.95;10.32;;;3.40;99.90;;;;;;5103125;28;20557;-60
2022/12/08 09:24:44;;;;;;;15.35;12.45;;;3.40;99.90;;;;;;5102862;28;20223;-61
2022/12/08 09:27:11;;;;;;;16.55;12.60;;;3.40;99.90;;;;;;5100946;28;20204;-61
2022/12/08 09:29:37;;;;;;;15.38;12.43;;;3.40;99.90;;;;;;5098466;28;20554;-61
2022/12/08 09:32:04;;;;;;;16.83;12.20;;;3.40;99.90;;;;;;5097307;28;20220;-61
2022/12/08 09:34:31;;;;;;;21.08;12.73;;;3.40;99.90;;;;;;5098454;28;20196;-61
2022/12/08 09:36:59;;;;;;;16.55;12.63;;;3.40;99.90;;;;;;5105721;28;20201;-60
2022/12/08 09:39:26;;;;;;;14.02;12.35;;;3.40;99.90;;;;;;5099226;28;20224;-60
2022/12/08 09:41:59;;;;;;;15.80;12.20;;;3.40;99.90;;;;;;5098389;28;20567;-60
2022/12/08 09:44:56;;;;;;;17.15;12.55;;;3.40;99.90;;;;;;5098992;28;20188;-61
2022/12/08 09:47:28;;;;;;;16.35;12.07;;;3.40;99.90;;;;;;5063600;28;20230;-60
2022/12/08 09:50:02;;;;;;;15.77;11.90;;;3.40;99.90;;;;;;5097904;28;20216;-59
2022/12/08 09:52:37;;;;;;;19.92;12.25;;;3.40;99.90;;;;;;5098191;28;20237;-60
2022/12/08 09:55:15;;;;;;;16.10;12.85;;;3.50;99.90;;;;;;5099412;28;20184;-61
2022/12/08 09:57:41;;;;;;;15.38;11.73;;;3.50;99.90;;;;;;5098128;28;20188;-62
2022/12/08 10:00:13;;;;;;;12.15;9.43;;;3.50;99.90;;;;;;5096939;28;20210;-61
2022/12/08 10:02:40;;;;;;;12.98;10.23;;;3.60;99.90;;;;;;5096831;28;20253;-60
2022/12/08 10:05:12;;;;;;;16.08;10.70;;;3.60;99.90;;;;;;5096462;28;20204;-60
2022/12/08 10:07:47;;;;;;;17.38;10.75;;;3.60;99.90;;;;;;5097156;28;20536;-60
2022/12/08 10:10:24;;;;;;;12.45;10.10;;;3.70;99.90;;;;;;5096741;28;20212;-59
2022/12/08 10:13:00;;;;;;;11.82;10.40;;;3.70;99.90;;;;;;5098237;28;20200;-62
2022/12/08 10:15:38;;;;;;;13.48;8.45;;;3.80;99.90;;;;;;5099308;28;20207;-60
2022/12/08 10:18:13;;;;;;;12.48;9.27;;;3.80;99.90;;;;;;5102171;28;20224;-60
2022/12/08 10:20:42;;;;;;;13.20;9.90;;;3.80;99.90;;;;;;5101814;28;20180;-61
2022/12/08 10:23:22;;;;;;;10.00;8.95;;;3.80;99.90;;;;;;5105365;28;20281;-62
2022/12/08 10:25:55;;;;;;;10.50;9.23;;;3.80;99.90;;;;;;5103475;28;20199;-60
2022/12/08 10:28:22;;;;;;;10.02;8.57;;;3.80;99.90;;;;;;5103903;28;20302;-61
2022/12/08 10:30:49;;;;;;;9.55;8.52;;;3.90;99.90;;;;;;5105382;28;20212;-61
2022/12/08 10:33:17;;;;;;;9.82;8.32;;;3.90;99.90;;;;;;5105346;28;20204;-61
2022/12/08 10:35:48;;;;;;;9.73;8.73;;;3.90;99.90;;;;;;5126550;22;20255;-66
2022/12/08 10:38:22;;;;;;;8.48;7.63;;;3.90;99.90;;;;;;5075972;28;20650;-63
2022/12/08 10:40:51;;;;;;;11.52;8.73;;;3.90;99.90;;;;;;5075467;28;20204;-66
2022/12/08 10:43:21;;;;;;;10.32;8.70;;;3.80;99.90;;;;;;5075388;28;20208;-64
2022/12/08 10:45:48;;;;;;;11.02;9.27;;;3.80;99.90;;;;;;5089812;28;20223;-65
2022/12/08 10:48:17;;;;;;;12.00;8.65;;;3.80;99.90;;;;;;5095589;28;20226;-64
2022/12/08 10:50:47;;;;;;;10.90;8.15;;;3.80;99.90;;;;;;5097125;28;20217;-65
2022/12/08 10:53:19;;;;;;;11.27;8.90;;;3.90;99.90;;;;;;5095918;28;20200;-66
2022/12/08 10:55:49;;;;;;;12.75;8.70;;;3.90;99.90;;;;;;5097086;28;20230;-64
2022/12/08 10:58:34;;;;;;;10.38;9.23;;;4.00;99.90;;;;;;5097371;28;20203;-65
2022/12/08 11:01:05;;;;;;;14.88;9.93;;;4.00;99.90;;;;;;5097904;28;20626;-64
2022/12/08 11:03:35;;;;;;;11.75;8.45;;;4.00;99.90;;;;;;5097404;28;20189;-63
2022/12/08 11:06:12;;;;;;;10.15;9.05;;;4.10;99.90;;;;;;5098546;28;20292;-66
2022/12/08 11:08:50;;;;;;;10.40;8.68;;;4.10;99.90;;;;;;5096805;28;20246;-65
2022/12/08 11:11:19;;;;;;;10.48;8.35;;;4.10;99.90;;;;;;5097336;28;20214;-68
2022/12/08 11:13:49;;;;;;;11.32;9.05;;;4.10;99.90;;;;;;5097628;28;20203;-65
2022/12/08 11:16:18;;;;;;;9.15;7.43;;;4.10;99.90;;;;;;5097157;28;20220;-66
2022/12/08 11:18:46;;;;;;;11.50;9.15;;;4.10;99.90;;;;;;5095704;28;20207;-65
2022/12/08 11:21:16;;;;;;;10.48;8.82;;;4.10;99.90;;;;;;5095745;28;20625;-64
2022/12/08 11:23:47;;;;;;;9.23;6.63;;;4.10;99.90;;;;;;5095147;28;20200;-65
2022/12/08 11:26:26;;;;;;;11.80;7.57;;;4.10;99.90;;;;;;5096317;28;20284;-64
2022/12/08 11:28:53;;;;;;;8.23;6.97;;;4.10;99.90;;;;;;5098728;28;20291;-65
2022/12/08 11:31:30;;;;;;;9.43;8.07;;;4.20;99.90;;;;;;5095869;28;20220;-65
2022/12/08 11:33:58;;;;;;;8.85;7.13;;;4.20;99.90;;;;;;5096531;28;20275;-65
2022/12/08 11:36:28;;;;;;;9.13;7.07;;;4.20;99.90;;;;;;5096075;28;20707;-65
2022/12/08 11:38:57;;;;;;;7.95;6.10;;;4.20;99.90;;;;;;5095570;28;20549;-64
2022/12/08 11:41:29;;;;;;;7.28;5.85;;;4.20;99.90;;;;;;5095073;28;20286;-65
2022/12/08 11:44:01;;;;;;;6.65;5.95;;;4.20;99.90;;;;;;5095861;28;20192;-64
2022/12/08 11:46:33;;;;;;;6.78;6.03;;;4.20;99.90;;;;;;5096377;28;20220;-65
2022/12/08 11:49:03;;;;;;;6.60;5.82;;;4.20;99.90;;;;;;5096388;28;20185;-66
2022/12/08 11:51:34;;;;;;;7.68;6.72;;;4.20;99.90;;;;;;5094716;28;20220;-65
2022/12/08 11:54:13;;;;;;;6.70;5.93;;;4.30;99.90;;;;;;5095625;28;20617;-65
2022/12/08 11:56:44;;;;;;;7.05;6.35;;;4.30;99.90;;;;;;5094556;28;20180;-65
2022/12/08 11:59:18;;;;;;;6.45;5.80;;;4.30;99.90;;;;;;5094344;28;20185;-65
2022/12/08 12:01:45;;;;;;;6.22;5.63;;;4.30;99.90;;;;;;5095322;28;20177;-65
2022/12/08 12:04:20;;;;;;;7.30;6.03;;;4.30;99.90;;;;;;5094749;28;20199;-66
2022/12/08 12:07:21;;;;;;;8.15;6.80;;;4.30;99.90;;;;;;5094880;28;20188;-65
2022/12/08 12:10:10;;;;;;;6.88;6.20;;;4.30;99.90;;;;;;5094328;28;20552;-65
2022/12/08 12:12:51;;;;;;;7.25;5.68;;;4.30;99.90;;;;;;5090903;28;20220;-66
2022/12/08 12:15:51;;;;;;;10.90;6.20;;;4.30;99.90;;;;;;5094046;28;20227;-65
2022/12/08 12:18:25;;;;;;;7.05;6.10;;;4.20;99.90;;;;;;5093570;28;20192;-65
2022/12/08 12:20:56;;;;;;;6.47;5.07;;;4.20;99.90;;;;;;5093788;28;20180;-65
2022/12/08 12:23:29;;;;;;;6.22;5.22;;;4.20;99.90;;;;;;5093533;28;20203;-65
2022/12/08 12:26:00;;;;;;;7.03;6.32;;;4.10;99.90;;;;;;5093859;28;20224;-64
2022/12/08 12:28:34;;;;;;;6.65;5.95;;;4.10;99.90;;;;;;5094873;28;20208;-65
2022/12/08 12:31:06;;;;;;;8.98;5.75;;;4.10;99.90;;;;;;5095648;28;20209;-64
2022/12/08 12:33:34;;;;;;;5.43;4.90;;;4.10;99.90;;;;;;5098715;28;20199;-64
2022/12/08 12:36:06;;;;;;;5.22;4.72;;;4.10;99.90;;;;;;5098010;28;20586;-64
2022/12/08 12:41:23;;;;;;;6.95;5.78;;;4.10;99.90;;;;;;5097937;28;20180;-65
2022/12/08 12:44:38;;;;;;;5.43;4.72;;;4.10;99.90;;;;;;5099661;28;20236;-64
2022/12/08 12:47:10;;;;;;;5.25;4.75;;;4.10;99.90;;;;;;5100751;28;20201;-65
2022/12/08 12:50:05;;;;;;;4.70;4.20;;;4.10;99.90;;;;;;5098314;28;20190;-64
2022/12/08 12:52:46;;;;;;;5.03;3.90;;;4.10;99.90;;;;;;5097569;28;20263;-64
2022/12/08 12:55:51;;;;;;;6.22;4.15;;;4.10;99.90;;;;;;5097177;28;20220;-65
2022/12/08 12:58:49;;;;;;;5.47;4.88;;;4.10;99.90;;;;;;5096561;28;20193;-65
2022/12/08 13:01:52;;;;;;;7.28;5.63;;;4.00;99.90;;;;;;5096890;28;20373;-62
2022/12/08 13:04:19;;;;;;;7.30;5.72;;;4.00;99.90;;;;;;5015153;28;20344;-65
2022/12/08 13:06:49;;;;;;;6.00;4.88;;;4.00;99.90;;;;;;5080953;28;20225;-64
2022/12/08 13:09:22;;;;;;;7.60;5.90;;;4.00;99.90;;;;;;5096878;28;20552;-64
2022/12/08 13:11:52;;;;;;;5.63;4.63;;;4.00;99.90;;;;;;5097008;28;20728;-64